METAR / TAF

Die METAR- und TAF-Liste ist aus technischen Gründen (Verfügbarkeit, Update-Zyklen) nicht für ein Meteo-Briefing gedacht. Benutzen Sie stattdessen skybriefing der Skyguide  oder das TAMSI (MeteoSchweiz-eigene Meteo Selfbriefing-Plattform für Firmen aus der Aviatik; Anfragen über das

Kontaktformular

METAR Schweiz

METAR     LSZH 230720Z 00000KT 9999 FEW020 BKN024 04/02 Q1026 NOSIG=
METAR     LSZH 230750Z VRB03KT 9999 FEW020 BKN024 05/03 Q1027 NOSIG=
METAR     LSGG 230720Z VRB02KT 9999 SCT040 05/04 Q1026 NOSIG=
METAR     LSGG 230750Z VRB02KT 9999 FEW030 SCT045 04/04 Q1027 NOSIG=
METAR     LFSB 230730Z 24005KT 9999 FEW020 SCT050 BKN260 06/04
               Q1026 NOSIG=
METAR     LSZB 230720Z 00000KT 9999 BKN032 04/03 Q1026 NOSIG=
METAR     LSZB 230750Z 10002KT 9999 BKN033 04/03 Q1026 NOSIG=
METAR     LSZA 230720Z VRB01KT 9999 FEW004 M01/M01 Q1020 NOSIG=
METAR     LSZA 230750Z VRB03KT 9999 FEW004 M01/M01 Q1020 NOSIG=
METAR     LSZG 230720Z AUTO 20006KT CAVOK 06/03 Q1026=
METAR     LSZG 230750Z 20004KT 9999 FEW028 05/03 Q1026 NOSIG=
METAR     LSZR 230720Z 10005KT 9999 VCSH BKN025 05/04 Q1026 NOSIG
               RMK C=
METAR     LSZR 230750Z VRB02KT 9999 FEW025 BKN040 05/04 Q1027 NOSIG
               RMK D=
METAR     LSGS 230720Z VRB01KT 9999 BKN025 05/05 Q1025=
METAR     LSGS 230750Z VRB02KT 9999 BKN025 05/04 Q1026=
METAR     LSGC 230720Z 23002KT 9999 BKN004 BKN018 01/01 Q1025=
METAR     LSGC 230750Z 24002KT 9999 SCT006 SCT011 BKN017 01/01
               Q1025=
METAR     LSZC 230720Z 06003KT 9999 BKN029 05/04 Q1026=
METAR     LSZC 230750Z VRB01KT 9999 BKN030 05/04 Q1026=
METAR     LSZL 230720Z NIL=
METAR     LSZL 230750Z 00000KT 9999 FEW001 M01/M02 Q1020 RMK BLU+=
METAR     LSZS 230720Z VRB03KT 9999 FEW050 M00/M06 Q1021 R03/750195
               RMK B=
METAR     LSZS 230750Z VRB01KT 9999 FEW050 M03/M06 Q1021 R03/750195
               RMK C=
METAR     LSMA 230720Z NIL=
METAR     LSMA 230750Z 22003KT 9999 SCT018 BKN021 OVC043 06/05
               Q1027 RMK WHT=
METAR     LSMD 230720Z NIL=
METAR     LSMD 230750Z 13002KT 9999 OVC027 05/03 Q1027 RMK BLU=
METAR     LSME 230720Z NIL=
METAR     LSME 230750Z NIL=
METAR     LSMM 230720Z NIL=
METAR     LSMM 230750Z 08001KT 9999 SCT013 BKN021 OVC036 06/04
               Q1026 RMK WHT=
METAR     LSMP 230720Z NIL=
METAR     LSMP 230750Z 25002KT 9999 FEW100 04/03 Q1026 RMK BLU+=
METAR     LSMS 230720Z VRB01KT 9999 BKN025 05/05 Q1025 RMK BLU=
METAR     LSMS 230750Z VRB02KT 9999 BKN025 05/04 Q1026 RMK BLU=
Aktualisiert am Dienstag, 23. Januar 2018, 09:03 Uhr

TAF Schweiz

TAF     LSZH 230525Z 2306/2412 27005KT 9999 FEW020 BKN055
             TX09/2314Z TN03/2306Z TN02/2406Z PROB40 TEMPO
             2402/2407 4000 BR BECMG 2407/2409 CAVOK=
TAF     LSGG 230525Z 2306/2412 VRB03KT 9999 BKN040 TX10/2315Z
             TN05/2306Z TN03/2405Z BECMG 2311/2313 CAVOK PROB30
             2403/2408 0800 FG VV003=
TAF     LFSB 230513Z 2306/2406 20005KT 9999 FEW016 BKN035 BECMG
             2309/2312 26010KT BECMG 2315/2318 15005KT TEMPO
             2318/2402 CAVOK=
TAF     LSGS 230525Z 2306/2315 VRB03KT 9999 BKN020 BECMG 2307/2310
             CAVOK=
TAF     LSZA 230525Z 2306/2315 VRB03KT CAVOK=
TAF     LSZB 230525Z 2306/2315 VRB03KT 9999 BKN040 BECMG 2307/2310
             SCT040 BECMG 2310/2314 CAVOK=
TAF AAC LSZG 230731Z 2307/2315 22005KT CAVOK PROB40 TEMPO 2307/2312
             9999 SCT040=
TAF     LSZG 230525Z 2306/2315 24012KT 9999 OVC050 BECMG 2308/2312
             VRB03KT=
TAF AAA LSZL 230711Z 2307/2315 VRB03KT 6000 NSC PROB40 TEMPO
             2307/2309 4000 BR BECMG 2307/2310 CAVOK=
TAF     LSZL 230525Z 2306/2315 VRB03KT CAVOK=
TAF     LSZR 230525Z 2306/2315 24003KT 8000 RA SCT010 BKN015 BKN025
             BECMG 2306/2308 NSW BECMG 2308/2311 BKN020=
TAF     LSGC 230525Z 2306/2315 23005KT 4000 BR BKN009 BECMG
             2307/2309 6000 NSW SCT010=
TAF     LSZC 230525Z 2306/2315 VRB03KT 9999 -RA BKN020 PROB30
             2306/2310 BKN014 PROB40 2312/2315 CAVOK=
TAF AAB LSZS 230714Z 2307/2315 36010KT CAVOK TX03/2306Z TEMPO
             2307/2312 9999 SCT050=
TAF     LSZS 230525Z 2306/2315 34017G30KT CAVOK TX03/2306Z PROB40
             2306/2310 9999 BKN050 BECMG 2307/2309 01006KT=
TAF     LSMA 221625Z 2217/2323 21005KT 6000 RA BKN035 TEMPO
             2217/2222 3500 +RA BKN012 TEMPO 2222/2301 3000 SHRA
             BECMG 2301/2303 NSW PROB40 2302/2307 4000 BR BECMG
             2308/2310 9999 BKN040=
TAF     LSMD 221625Z 2217/2323 28010KT 7000 -RA SCT015 BKN020
             OVC030 TEMPO 2217/2222 28012G25KT 4000 SHRA BKN013
             BECMG 2303/2306 4500 BR BKN020 BECMG 2308/2311 9999
             BKN030=
TAF     LSME 221625Z 2217/2323 24008KT 7000 RA SCT030 OVC040 TEMPO
             2217/2222 4000 +RA BKN014 TEMPO 2217/2303 SHRA BKN013
             BECMG 2303/2305 VRB03KT 4000 BR BECMG 2306/2309 9999
             BKN030=
TAF AAB LSMM 230621Z 2306/2323 VRB03KT 5000 RA FEW001 BKN014 OVC030
             TEMPO 2217/2224 3000 +SHRA BKN008 BECMG 2223/2302
             2500 BR BKN010 BECMG 2306/2310 9999 BKN020 PROB30
             2306/2309 4500 -RA BKN010=
TAF AAA LSMM 221843Z 2218/2323 VRB03KT 5000 RA FEW001 BKN014 OVC030
             TEMPO 2217/2224 3000 +SHRA BKN008 BECMG 2223/2302
             2500 BR BKN010 BECMG 2307/2310 9999 BKN020=
TAF     LSMM 221625Z 2217/2323 VRB03KT 5000 RA FEW005 SCT010 BKN018
             TEMPO 2217/2224 3000 +SHRA BKN014 BECMG 2223/2302
             2500 BR BKN012 BECMG 2307/2310 9999 BKN020=
TAF     LSMP 230525Z 2306/2412 VRB03KT 9999 BKN030 BECMG 2311/2313
             CAVOK PROB40 2403/2408 0800 FG VV003=
Aktualisiert am Dienstag, 23. Januar 2018, 09:03 Uhr